Time;durP1;ratioP1;P1;durP2;ratioP2;P2;SDS_P1;SDS_P2;PMS_P1;PMS_P2;Temp;Humidity;BMP_temperature;BMP_pressure;BME280_temperature;BME280_humidity;BME280_pressure;Samples;Min_cycle;Max_cycle;Signal;HPM_P1;HPM_P2
2022/11/09 00:00:40;;;;;;;3.75;0.98;;;11.00;99.90;;;;;;5079759;28;20517;-44
2022/11/09 00:03:06;;;;;;;5.25;1.20;;;11.00;99.90;;;;;;5076909;28;20048;-44
2022/11/09 00:05:31;;;;;;;8.02;1.30;;;11.00;99.90;;;;;;5078326;28;20052;-44
2022/11/09 00:07:57;;;;;;;4.50;1.10;;;10.90;99.90;;;;;;5076753;28;20080;-44
2022/11/09 00:10:23;;;;;;;9.88;1.63;;;11.00;99.90;;;;;;5076549;28;20048;-44
2022/11/09 00:12:48;;;;;;;4.57;0.95;;;11.00;99.90;;;;;;5076951;28;20123;-44
2022/11/09 00:15:14;;;;;;;5.00;1.27;;;10.90;99.90;;;;;;5079779;28;20048;-43
2022/11/09 00:17:40;;;;;;;8.82;1.20;;;11.00;99.90;;;;;;5080196;28;20040;-44
2022/11/09 00:20:06;;;;;;;10.05;1.95;;;11.10;99.90;;;;;;5077666;28;20127;-44
2022/11/09 00:22:32;;;;;;;4.45;0.88;;;11.10;99.90;;;;;;5076574;28;20119;-44
2022/11/09 00:24:58;;;;;;;4.80;0.90;;;11.10;99.90;;;;;;5079935;28;20091;-43
2022/11/09 00:27:23;;;;;;;3.80;1.15;;;11.10;99.90;;;;;;5076510;28;20069;-43
2022/11/09 00:29:49;;;;;;;3.88;0.90;;;11.10;99.90;;;;;;5079043;28;20048;-44
2022/11/09 00:32:15;;;;;;;4.45;0.90;;;11.10;99.90;;;;;;5058651;28;20076;-44
2022/11/09 00:34:41;;;;;;;2.55;0.80;;;11.20;99.90;;;;;;5078456;28;20533;-43
2022/11/09 00:37:06;;;;;;;4.25;1.02;;;11.20;99.90;;;;;;5085562;28;20102;-42
2022/11/09 00:39:32;;;;;;;5.25;1.42;;;11.20;99.90;;;;;;5079481;28;20143;-42
2022/11/09 00:41:57;;;;;;;7.60;1.90;;;11.20;99.90;;;;;;5076816;28;20048;-42
2022/11/09 00:44:23;;;;;;;5.88;1.02;;;11.20;99.90;;;;;;5078634;28;20043;-42
2022/11/09 00:46:49;;;;;;;4.90;1.20;;;11.20;99.90;;;;;;5075839;28;20106;-43
2022/11/09 00:49:15;;;;;;;2.58;1.00;;;11.20;99.90;;;;;;5076124;28;20179;-43
2022/11/09 00:51:41;;;;;;;3.95;1.20;;;11.20;99.90;;;;;;5074523;28;20509;-43
2022/11/09 00:54:07;;;;;;;4.60;1.00;;;11.20;99.90;;;;;;5086963;28;20044;-41
2022/11/09 00:56:32;;;;;;;3.50;1.58;;;11.20;99.90;;;;;;5089779;28;20520;-42
2022/11/09 00:58:58;;;;;;;4.22;1.52;;;11.20;99.90;;;;;;5096140;28;20089;-42
2022/11/09 01:01:24;;;;;;;6.40;1.40;;;11.20;99.90;;;;;;5096154;28;20044;-42
2022/11/09 01:03:50;;;;;;;6.13;2.33;;;11.20;99.90;;;;;;5087315;28;20123;-42
2022/11/09 01:06:21;;;;;;;4.40;2.35;;;11.20;99.90;;;;;;5075826;28;20053;-43
2022/11/09 01:08:47;;;;;;;8.40;2.63;;;11.20;99.90;;;;;;5075212;28;20083;-43
2022/11/09 01:11:13;;;;;;;7.43;3.03;;;11.20;99.90;;;;;;5080345;28;20045;-42
2022/11/09 01:13:39;;;;;;;9.05;2.67;;;11.30;99.90;;;;;;5074570;28;20706;-43
2022/11/09 01:16:07;;;;;;;8.20;2.40;;;11.30;99.90;;;;;;5078213;28;20048;-43
2022/11/09 01:18:34;;;;;;;4.10;2.45;;;11.30;99.90;;;;;;5077292;28;20429;-42
2022/11/09 01:21:02;;;;;;;5.53;2.35;;;11.40;99.90;;;;;;5076519;28;20120;-43
2022/11/09 01:23:28;;;;;;;7.82;3.00;;;11.50;99.90;;;;;;5075443;28;20075;-44
2022/11/09 01:26:02;;;;;;;5.47;2.42;;;11.60;99.90;;;;;;5090001;28;20044;-43
2022/11/09 01:28:28;;;;;;;7.32;2.90;;;11.80;99.90;;;;;;5085604;28;20086;-43
2022/11/09 01:30:54;;;;;;;9.13;2.20;;;11.80;99.90;;;;;;5075276;28;20037;-43
2022/11/09 01:33:20;;;;;;;7.32;2.22;;;11.90;99.90;;;;;;5075157;28;20046;-43
2022/11/09 01:35:46;;;;;;;7.15;2.28;;;12.00;99.90;;;;;;5077774;28;20114;-42
2022/11/09 01:38:11;;;;;;;11.95;2.65;;;12.10;99.90;;;;;;5075432;28;20045;-44
2022/11/09 01:40:38;;;;;;;13.50;2.75;;;12.10;99.90;;;;;;5075079;28;20036;-43
2022/11/09 01:43:18;;;;;;;14.55;4.28;;;12.20;99.90;;;;;;5077197;28;20048;-43
2022/11/09 01:45:59;;;;;;;3.83;1.48;;;12.20;99.90;;;;;;5078225;28;20048;-43
2022/11/09 01:48:52;;;;;;;9.77;2.20;;;12.20;99.90;;;;;;5074974;28;20048;-44
2022/11/09 01:51:30;;;;;;;8.40;2.20;;;12.00;99.90;;;;;;5078285;28;20044;-44
2022/11/09 01:54:10;;;;;;;4.70;1.80;;;12.00;99.90;;;;;;5074865;28;20044;-44
2022/11/09 01:56:36;;;;;;;9.60;2.00;;;12.00;99.90;;;;;;5077965;28;20045;-45
2022/11/09 01:59:07;;;;;;;4.43;1.50;;;11.90;99.90;;;;;;5074982;28;20053;-44
2022/11/09 02:01:34;;;;;;;7.28;1.67;;;11.90;99.90;;;;;;5075295;28;20083;-44
2022/11/09 02:04:09;;;;;;;6.88;1.50;;;11.90;99.90;;;;;;5077136;28;20083;-44
2022/11/09 02:06:35;;;;;;;8.50;1.98;;;11.90;99.90;;;;;;5077289;28;20135;-44
2022/11/09 02:09:40;;;;;;;5.63;1.60;;;11.90;99.90;;;;;;5074286;28;20124;-45
2022/11/09 02:12:06;;;;;;;7.10;1.67;;;11.80;99.90;;;;;;5051079;28;20059;-44
2022/11/09 02:14:36;;;;;;;7.93;2.42;;;11.80;99.90;;;;;;5077092;28;20040;-44
2022/11/09 02:17:02;;;;;;;10.23;2.78;;;11.80;99.90;;;;;;5079861;28;20052;-44
2022/11/09 02:19:27;;;;;;;8.98;2.55;;;11.80;99.90;;;;;;5074320;28;20056;-44
2022/11/09 02:21:55;;;;;;;12.25;2.70;;;11.90;99.90;;;;;;5074294;28;20377;-44
2022/11/09 02:24:21;;;;;;;10.20;2.55;;;11.90;99.90;;;;;;5077098;28;20050;-44
2022/11/09 02:26:49;;;;;;;7.57;2.33;;;11.80;99.90;;;;;;5073358;28;20053;-44
2022/11/09 02:29:27;;;;;;;9.70;2.20;;;11.70;99.90;;;;;;5074715;28;20048;-44
2022/11/09 02:31:59;;;;;;;8.80;2.38;;;11.70;99.90;;;;;;5076478;28;20045;-44
2022/11/09 02:34:25;;;;;;;9.97;2.17;;;11.60;99.90;;;;;;5075499;28;20052;-44
2022/11/09 02:36:51;;;;;;;10.68;2.38;;;11.60;99.90;;;;;;5094649;28;20051;-45
2022/11/09 02:39:19;;;;;;;14.68;2.53;;;11.60;99.90;;;;;;5085946;28;20123;-44
2022/11/09 02:42:01;;;;;;;10.75;2.95;;;11.50;99.90;;;;;;5077565;28;20498;-44
2022/11/09 02:44:28;;;;;;;9.88;1.90;;;11.50;99.90;;;;;;5073412;28;20148;-45
2022/11/09 02:46:54;;;;;;;8.60;1.70;;;11.50;99.90;;;;;;5077426;28;20044;-44
2022/11/09 02:49:20;;;;;;;7.68;2.33;;;11.50;99.90;;;;;;5074136;28;20040;-44
2022/11/09 02:51:46;;;;;;;10.95;2.85;;;11.40;99.90;;;;;;5073492;28;20151;-44
2022/11/09 02:54:11;;;;;;;7.95;1.88;;;11.40;99.90;;;;;;5076271;28;20050;-44
2022/11/09 02:56:37;;;;;;;10.35;2.58;;;11.40;99.90;;;;;;5073540;28;20123;-44
2022/11/09 02:59:03;;;;;;;10.43;2.67;;;11.30;99.90;;;;;;5074047;28;20470;-44
2022/11/09 03:01:32;;;;;;;8.90;2.25;;;11.30;99.90;;;;;;5076996;28;20048;-44
2022/11/09 03:03:58;;;;;;;11.23;2.63;;;11.30;99.90;;;;;;5056823;28;20048;-44
2022/11/09 03:06:33;;;;;;;9.60;2.45;;;11.30;99.90;;;;;;5076113;28;20061;-43
2022/11/09 03:09:04;;;;;;;13.35;2.58;;;11.40;99.90;;;;;;5073593;28;20398;-43
2022/11/09 03:11:29;;;;;;;11.40;2.60;;;11.40;99.90;;;;;;5073631;28;20051;-43
2022/11/09 03:13:56;;;;;;;17.45;2.92;;;11.40;99.90;;;;;;5073101;28;20499;-44
2022/11/09 03:16:22;;;;;;;10.98;2.47;;;11.40;99.90;;;;;;5075761;28;20490;-44
2022/11/09 03:18:50;;;;;;;8.73;1.75;;;11.40;99.90;;;;;;5072379;28;20045;-44
2022/11/09 03:21:16;;;;;;;9.82;2.30;;;11.40;99.90;;;;;;5072021;28;20049;-44
2022/11/09 03:23:42;;;;;;;11.02;2.42;;;11.40;99.90;;;;;;5075861;28;20051;-44
2022/11/09 03:26:08;;;;;;;8.85;2.28;;;11.40;99.90;;;;;;5077425;28;20055;-43
2022/11/09 03:28:33;;;;;;;10.13;2.15;;;11.30;99.90;;;;;;5076815;28;20045;-44
2022/11/09 03:30:59;;;;;;;8.38;2.20;;;11.30;99.90;;;;;;5076236;28;20094;-44
2022/11/09 03:33:25;;;;;;;18.42;2.40;;;11.20;99.90;;;;;;5077513;28;20047;-43
2022/11/09 03:35:50;;;;;;;8.05;2.25;;;11.30;99.90;;;;;;5080728;28;20067;-43
2022/11/09 03:38:16;;;;;;;8.55;1.77;;;11.30;99.90;;;;;;5076822;28;20453;-44
2022/11/09 03:40:42;;;;;;;5.80;2.00;;;11.30;99.90;;;;;;5077948;28;20049;-39
2022/11/09 03:43:08;;;;;;;7.72;2.05;;;11.30;99.90;;;;;;5078996;28;20043;-43
2022/11/09 03:45:34;;;;;;;10.18;2.63;;;11.30;99.90;;;;;;5088256;28;20043;-43
2022/11/09 03:48:00;;;;;;;10.35;1.77;;;11.30;99.90;;;;;;5096552;28;20048;-43
2022/11/09 03:50:28;;;;;;;13.93;2.45;;;11.30;99.90;;;;;;5083780;28;20036;-43
2022/11/09 03:52:53;;;;;;;11.38;2.17;;;11.30;99.90;;;;;;5077621;28;20036;-43
2022/11/09 03:55:19;;;;;;;6.05;1.95;;;11.40;99.90;;;;;;5078730;28;20067;-42
2022/11/09 03:57:45;;;;;;;15.55;2.60;;;11.30;99.90;;;;;;5077075;28;20069;-43
2022/11/09 04:00:13;;;;;;;9.55;2.17;;;11.40;99.90;;;;;;5077116;28;20051;-43
2022/11/09 04:02:42;;;;;;;11.43;2.25;;;11.30;99.90;;;;;;5079484;28;20045;-43
2022/11/09 04:05:08;;;;;;;14.38;2.38;;;11.30;99.90;;;;;;5079885;28;20512;-43
2022/11/09 04:07:34;;;;;;;16.77;2.10;;;11.30;99.90;;;;;;5097997;28;20052;-42
2022/11/09 04:10:00;;;;;;;13.52;2.50;;;11.30;99.90;;;;;;5097871;28;20048;-43
2022/11/09 04:12:25;;;;;;;15.20;2.13;;;11.30;99.90;;;;;;5095623;28;20375;-42
2022/11/09 04:14:51;;;;;;;8.32;1.60;;;11.30;99.90;;;;;;5088933;28;20072;-42
2022/11/09 04:17:17;;;;;;;9.90;2.45;;;11.30;99.90;;;;;;5084880;28;20067;-43
2022/11/09 04:19:42;;;;;;;11.32;1.90;;;11.30;99.90;;;;;;5076668;28;20048;-43
2022/11/09 04:22:08;;;;;;;13.45;2.80;;;11.30;99.90;;;;;;5075672;28;20044;-42
2022/11/09 04:24:34;;;;;;;15.75;2.10;;;11.20;99.90;;;;;;5079257;28;20036;-41
2022/11/09 04:26:59;;;;;;;12.57;2.08;;;11.20;99.90;;;;;;5085125;28;20486;-43
2022/11/09 04:29:25;;;;;;;12.05;2.17;;;11.10;99.90;;;;;;5080004;28;20072;-42
2022/11/09 04:31:51;;;;;;;11.75;2.00;;;11.10;99.90;;;;;;5076903;28;20041;-42
2022/11/09 04:34:17;;;;;;;16.55;2.30;;;11.10;99.90;;;;;;5078821;28;20080;-42
2022/11/09 04:36:43;;;;;;;10.98;1.65;;;11.00;99.90;;;;;;5076028;28;20390;-41
2022/11/09 04:39:09;;;;;;;12.25;3.00;;;11.00;99.90;;;;;;5074430;28;20044;-42
2022/11/09 04:41:35;;;;;;;13.88;2.08;;;11.10;99.90;;;;;;5076804;28;20037;-42
2022/11/09 04:44:00;;;;;;;8.43;1.77;;;11.20;99.90;;;;;;5077111;28;21903;-39
2022/11/09 04:46:26;;;;;;;11.63;2.10;;;11.20;99.90;;;;;;5096670;28;20089;-42
2022/11/09 04:48:52;;;;;;;8.80;1.63;;;11.20;99.90;;;;;;5096605;28;20135;-42
2022/11/09 04:51:18;;;;;;;7.82;1.73;;;11.20;99.90;;;;;;5095422;28;20048;-42
2022/11/09 04:53:44;;;;;;;11.40;2.05;;;11.20;99.90;;;;;;5096012;28;20240;-41
2022/11/09 04:56:10;;;;;;;9.40;1.77;;;11.20;99.90;;;;;;5074738;28;20052;-41
2022/11/09 04:58:36;;;;;;;11.00;1.95;;;11.20;99.90;;;;;;5075339;28;20052;-42
2022/11/09 05:01:20;;;;;;;11.68;1.90;;;11.20;99.90;;;;;;5075958;28;20125;-42
2022/11/09 05:03:46;;;;;;;12.00;1.88;;;11.20;99.90;;;;;;5075710;28;20059;-42
2022/11/09 05:08:56;;;;;;;12.10;2.30;;;11.30;99.90;;;;;;5075508;28;20502;-40
2022/11/09 05:11:22;;;;;;;10.05;1.77;;;11.40;99.90;;;;;;5075674;28;20037;-41
2022/11/09 05:13:50;;;;;;;12.55;2.65;;;11.50;99.90;;;;;;5078344;28;20044;-42
2022/11/09 05:16:16;;;;;;;12.57;2.60;;;11.50;99.90;;;;;;5093406;28;20048;-40
2022/11/09 05:18:42;;;;;;;10.85;1.95;;;11.40;99.90;;;;;;5095771;28;20040;-42
2022/11/09 05:21:08;;;;;;;8.65;1.83;;;11.50;99.90;;;;;;5094825;28;20130;-40
2022/11/09 05:26:18;;;;;;;16.13;3.03;;;11.40;99.90;;;;;;5079014;28;20051;-41
2022/11/09 05:28:43;;;;;;;8.10;1.95;;;11.40;99.90;;;;;;5075344;28;20041;-40
2022/11/09 05:31:09;;;;;;;8.43;1.73;;;11.40;99.90;;;;;;5074171;28;20042;-42
2022/11/09 05:33:35;;;;;;;5.90;1.73;;;11.40;99.90;;;;;;5074052;28;20387;-38
2022/11/09 05:36:01;;;;;;;9.77;2.47;;;11.40;99.90;;;;;;5075762;28;20110;-40
2022/11/09 05:38:27;;;;;;;8.52;2.67;;;11.40;99.90;;;;;;5075180;28;20127;-40
2022/11/09 05:40:53;;;;;;;8.73;1.90;;;11.40;99.90;;;;;;5075937;28;20040;-40
2022/11/09 05:43:19;;;;;;;11.13;2.72;;;11.40;99.90;;;;;;5088688;28;20082;-41
2022/11/09 05:45:45;;;;;;;13.75;2.65;;;11.40;99.90;;;;;;5076880;28;20105;-42
2022/11/09 05:48:13;;;;;;;9.80;2.42;;;11.40;99.90;;;;;;5074263;28;20087;-39
2022/11/09 05:50:40;;;;;;;11.85;2.20;;;11.40;99.90;;;;;;5077402;28;20048;-36
2022/11/09 05:53:06;;;;;;;10.48;1.77;;;11.50;99.90;;;;;;5074460;28;20395;-41
2022/11/09 05:55:32;;;;;;;13.30;2.72;;;11.40;99.90;;;;;;5088925;28;20044;-38
2022/11/09 05:57:58;;;;;;;14.05;2.78;;;11.40;99.90;;;;;;5095608;28;20048;-39
2022/11/09 06:00:24;;;;;;;12.88;2.50;;;11.40;99.90;;;;;;5083769;28;20044;-39
2022/11/09 06:02:49;;;;;;;11.73;2.38;;;11.50;99.90;;;;;;5076034;28;20097;-39
2022/11/09 06:05:15;;;;;;;11.88;2.08;;;11.40;99.90;;;;;;5079016;28;20052;-40
2022/11/09 06:07:41;;;;;;;10.35;2.83;;;11.40;99.90;;;;;;5094815;28;20161;-39
2022/11/09 06:10:08;;;;;;;10.68;2.47;;;11.40;99.90;;;;;;5095302;28;20040;-36
2022/11/09 06:12:34;;;;;;;9.68;2.28;;;11.30;99.90;;;;;;5092218;28;20048;-38
2022/11/09 06:15:00;;;;;;;8.68;2.63;;;11.20;99.90;;;;;;5079301;28;20510;-39
2022/11/09 06:17:26;;;;;;;8.85;2.05;;;11.20;99.90;;;;;;5077464;28;20128;-40
2022/11/09 06:19:51;;;;;;;9.10;2.13;;;11.20;99.90;;;;;;5074538;28;20131;-41
2022/11/09 06:22:17;;;;;;;11.95;2.55;;;11.30;99.90;;;;;;5075262;28;20079;-40
2022/11/09 06:24:43;;;;;;;14.52;2.17;;;11.20;99.90;;;;;;5073708;28;20040;-40
2022/11/09 06:27:09;;;;;;;5.10;1.42;;;11.10;99.90;;;;;;5077742;28;20094;-35
2022/11/09 06:29:34;;;;;;;14.95;1.98;;;11.10;99.90;;;;;;5075600;28;20117;-37
2022/11/09 06:32:00;;;;;;;10.73;1.67;;;11.10;99.90;;;;;;5073735;28;20054;-39
2022/11/09 06:34:26;;;;;;;9.23;1.90;;;11.10;99.90;;;;;;5077298;28;20048;-39
2022/11/09 06:36:52;;;;;;;9.00;1.67;;;11.00;99.90;;;;;;5074011;28;20040;-40
2022/11/09 06:39:18;;;;;;;7.95;1.45;;;11.00;99.90;;;;;;5074019;28;20044;-35
2022/11/09 06:41:43;;;;;;;9.00;2.20;;;11.00;99.90;;;;;;5072812;28;20087;-39
2022/11/09 06:44:09;;;;;;;9.50;2.15;;;11.00;99.90;;;;;;5082160;28;20080;-40
2022/11/09 06:46:35;;;;;;;11.90;2.15;;;11.00;99.90;;;;;;5092262;28;20109;-36
2022/11/09 06:49:00;;;;;;;9.55;1.75;;;10.90;99.90;;;;;;5093844;28;20116;-39
2022/11/09 06:51:26;;;;;;;12.77;2.95;;;10.90;99.90;;;;;;5094635;28;20052;-39
2022/11/09 06:53:52;;;;;;;8.95;2.95;;;10.90;99.90;;;;;;5078190;28;20048;-36
2022/11/09 06:56:18;;;;;;;9.30;1.58;;;10.90;99.90;;;;;;5079729;28;20044;-37
2022/11/09 06:58:43;;;;;;;10.80;2.08;;;11.00;99.90;;;;;;5094021;28;20177;-35
2022/11/09 07:01:11;;;;;;;9.93;1.67;;;11.00;99.90;;;;;;5077566;28;20055;-36
2022/11/09 07:03:37;;;;;;;13.60;1.73;;;11.00;99.90;;;;;;5073745;28;20402;-37
2022/11/09 07:06:05;;;;;;;11.57;2.95;;;11.00;99.90;;;;;;5076906;28;20048;-40
2022/11/09 07:08:31;;;;;;;11.88;2.03;;;11.00;99.90;;;;;;5073621;28;20390;-39
2022/11/09 07:11:08;;;;;;;11.43;2.25;;;11.00;99.90;;;;;;5075062;28;20044;-36
2022/11/09 07:13:34;;;;;;;12.45;2.92;;;10.90;99.90;;;;;;5073549;28;20041;-39
2022/11/09 07:16:00;;;;;;;9.23;2.15;;;10.90;99.90;;;;;;5074512;28;20090;-37
2022/11/09 07:18:26;;;;;;;9.15;2.08;;;11.00;99.90;;;;;;5056323;28;20490;-37
2022/11/09 07:20:51;;;;;;;7.32;1.67;;;11.00;99.90;;;;;;5080321;28;20048;-35
2022/11/09 07:23:17;;;;;;;6.50;1.95;;;11.00;99.90;;;;;;5074086;28;20049;-36
2022/11/09 07:25:43;;;;;;;9.50;1.60;;;10.90;99.90;;;;;;5075142;28;20078;-36
2022/11/09 07:28:11;;;;;;;13.88;2.65;;;10.90;99.90;;;;;;5074346;28;20049;-35
2022/11/09 07:30:39;;;;;;;11.68;2.20;;;11.00;99.90;;;;;;5082822;28;20052;-36
2022/11/09 07:33:14;;;;;;;15.57;2.00;;;11.00;99.90;;;;;;5092153;28;20044;-35
2022/11/09 07:35:40;;;;;;;7.60;1.55;;;11.00;99.90;;;;;;5092932;28;20084;-36
2022/11/09 07:38:06;;;;;;;11.98;2.28;;;11.00;99.90;;;;;;5093561;28;20044;-39
2022/11/09 07:40:32;;;;;;;8.88;1.52;;;11.00;99.90;;;;;;5081087;28;20101;-34
2022/11/09 07:42:59;;;;;;;7.05;1.70;;;11.00;99.90;;;;;;5074837;28;20045;-34
2022/11/09 07:45:26;;;;;;;9.60;1.70;;;11.00;99.90;;;;;;5073318;28;20074;-37
2022/11/09 07:48:00;;;;;;;10.48;1.73;;;11.00;99.90;;;;;;5073281;28;20044;-35
2022/11/09 07:50:28;;;;;;;11.00;2.28;;;11.00;99.90;;;;;;5076470;28;20441;-34
2022/11/09 07:52:55;;;;;;;12.00;2.28;;;11.10;99.90;;;;;;5073216;28;20049;-38
2022/11/09 07:55:21;;;;;;;7.85;1.90;;;11.10;99.90;;;;;;5074686;28;20177;-35
2022/11/09 07:57:47;;;;;;;8.10;1.50;;;11.10;99.90;;;;;;5073119;28;20495;-37
2022/11/09 08:00:13;;;;;;;13.00;2.30;;;11.10;99.90;;;;;;5076402;28;20120;-34
2022/11/09 08:02:39;;;;;;;14.80;1.95;;;11.20;99.90;;;;;;5076172;28;20045;-34
2022/11/09 08:05:06;;;;;;;17.02;3.17;;;11.20;99.90;;;;;;5078220;28;20061;-34
2022/11/09 08:07:33;;;;;;;13.27;2.72;;;11.20;99.90;;;;;;5073766;28;20056;-35
2022/11/09 08:09:59;;;;;;;10.65;2.22;;;11.20;99.90;;;;;;5075482;28;20052;-34
2022/11/09 08:12:24;;;;;;;12.00;2.60;;;11.10;99.90;;;;;;5074182;28;20501;-34
2022/11/09 08:14:50;;;;;;;12.90;2.42;;;11.20;99.90;;;;;;5077355;28;20037;-34
2022/11/09 08:17:16;;;;;;;12.82;2.25;;;11.30;99.90;;;;;;5076383;28;20067;-34
2022/11/09 08:19:41;;;;;;;12.20;1.75;;;11.30;99.90;;;;;;5080209;28;20044;-37
2022/11/09 08:22:08;;;;;;;11.70;2.08;;;11.30;99.90;;;;;;5076575;28;20439;-35
2022/11/09 08:24:33;;;;;;;10.85;2.63;;;11.40;99.90;;;;;;5079043;28;20072;-33
2022/11/09 08:26:59;;;;;;;10.40;1.75;;;11.40;99.90;;;;;;5076493;28;20490;-36
2022/11/09 08:29:25;;;;;;;10.77;2.90;;;11.40;99.90;;;;;;5075177;28;20048;-35
2022/11/09 08:31:51;;;;;;;12.15;1.75;;;11.50;99.90;;;;;;5078261;28;20123;-35
2022/11/09 08:34:16;;;;;;;10.77;2.00;;;11.50;99.90;;;;;;5079631;28;20048;-33
2022/11/09 08:36:42;;;;;;;9.07;1.80;;;11.60;99.90;;;;;;5058434;28;20088;-34
2022/11/09 08:39:09;;;;;;;19.45;2.67;;;11.70;99.90;;;;;;5075768;28;20049;-33
2022/11/09 08:41:35;;;;;;;12.82;2.30;;;11.70;99.90;;;;;;5076366;28;20048;-34
2022/11/09 08:44:01;;;;;;;11.40;2.28;;;11.70;99.90;;;;;;5076558;28;20123;-33
2022/11/09 08:46:26;;;;;;;7.63;1.85;;;11.70;99.90;;;;;;5076188;28;20517;-33
2022/11/09 08:48:52;;;;;;;11.38;1.88;;;11.80;99.90;;;;;;5075003;28;20086;-34
2022/11/09 08:51:18;;;;;;;14.30;3.65;;;11.90;99.90;;;;;;5076173;28;20049;-33
2022/11/09 08:53:43;;;;;;;12.48;1.80;;;11.90;99.90;;;;;;5076039;28;20082;-34
2022/11/09 08:56:11;;;;;;;16.10;2.25;;;11.90;99.90;;;;;;5076070;28;20107;-35
2022/11/09 08:58:37;;;;;;;12.45;1.88;;;12.00;99.90;;;;;;5076014;28;20056;-34
2022/11/09 09:01:07;;;;;;;10.88;1.80;;;12.00;99.90;;;;;;5075979;28;20080;-33
2022/11/09 09:03:33;;;;;;;9.05;2.22;;;12.10;99.90;;;;;;5074657;28;20059;-35
2022/11/09 09:06:05;;;;;;;9.65;1.70;;;12.20;99.90;;;;;;5075919;28;20052;-34
2022/11/09 09:08:31;;;;;;;14.70;2.80;;;12.30;99.90;;;;;;5075707;28;20059;-34
2022/11/09 09:11:00;;;;;;;10.38;2.08;;;12.20;99.90;;;;;;5075725;28;20567;-34
2022/11/09 09:13:25;;;;;;;9.27;1.55;;;12.20;99.90;;;;;;5075679;28;20044;-33
2022/11/09 09:15:51;;;;;;;8.75;1.85;;;12.20;99.90;;;;;;5075652;28;20045;-34
2022/11/09 09:18:17;;;;;;;10.73;1.80;;;12.30;99.90;;;;;;5074434;28;20040;-33
2022/11/09 09:20:42;;;;;;;12.23;2.03;;;12.30;99.90;;;;;;5076417;28;20470;-33
2022/11/09 09:23:08;;;;;;;15.60;2.15;;;12.40;99.90;;;;;;5075929;28;20036;-33
2022/11/09 09:25:34;;;;;;;16.23;2.95;;;12.40;99.90;;;;;;5074802;28;20048;-35
2022/11/09 09:27:59;;;;;;;14.30;1.95;;;12.40;99.90;;;;;;5075430;28;20493;-33
2022/11/09 09:30:25;;;;;;;9.88;1.92;;;12.50;99.90;;;;;;5075374;28;20086;-32
2022/11/09 09:32:51;;;;;;;10.50;1.92;;;12.50;99.90;;;;;;5075254;28;20066;-34
2022/11/09 09:35:16;;;;;;;9.90;2.13;;;12.50;99.90;;;;;;5075336;28;20056;-33
2022/11/09 09:37:43;;;;;;;15.10;2.58;;;12.60;99.90;;;;;;5074263;28;20048;-33
2022/11/09 09:40:24;;;;;;;11.50;2.13;;;12.70;99.90;;;;;;5076028;28;20052;-32
2022/11/09 09:42:52;;;;;;;10.45;1.95;;;12.70;99.90;;;;;;5075802;28;20109;-33
2022/11/09 09:45:21;;;;;;;6.65;1.63;;;12.80;99.90;;;;;;5075086;28;20044;-34
2022/11/09 09:48:20;;;;;;;11.98;2.13;;;12.80;99.90;;;;;;5074317;28;20052;-33
2022/11/09 09:50:53;;;;;;;6.88;1.85;;;12.90;99.90;;;;;;5075771;28;20080;-32
2022/11/09 09:53:45;;;;;;;12.23;1.60;;;12.90;99.90;;;;;;5075754;28;20052;-33
2022/11/09 09:56:22;;;;;;;7.85;1.70;;;12.90;99.90;;;;;;5074212;28;20086;-32
2022/11/09 09:58:58;;;;;;;11.18;2.72;;;13.00;99.90;;;;;;5074827;28;20050;-33
2022/11/09 10:01:34;;;;;;;13.68;1.90;;;13.00;99.90;;;;;;5075080;28;20396;-33
2022/11/09 10:04:00;;;;;;;8.23;1.88;;;13.00;99.90;;;;;;5074727;28;20090;-32
2022/11/09 10:06:36;;;;;;;8.10;2.28;;;13.10;99.90;;;;;;5073269;28;20101;-33
2022/11/09 10:09:24;;;;;;;10.70;2.75;;;13.20;99.90;;;;;;5074604;28;20095;-33
2022/11/09 10:12:11;;;;;;;8.95;1.92;;;13.20;99.90;;;;;;5074447;28;20504;-32
2022/11/09 10:14:55;;;;;;;9.50;2.15;;;13.30;99.90;;;;;;5075334;28;20131;-33
2022/11/09 10:17:47;;;;;;;15.02;2.25;;;13.30;99.90;;;;;;5074999;28;20437;-33
2022/11/09 10:20:25;;;;;;;8.55;2.10;;;13.30;99.90;;;;;;5074681;28;20044;-33
2022/11/09 10:23:12;;;;;;;13.35;3.00;;;13.30;99.90;;;;;;5074408;28;20044;-32
2022/11/09 10:25:40;;;;;;;12.57;2.90;;;13.40;99.90;;;;;;5074324;28;20048;-33
2022/11/09 10:28:12;;;;;;;17.48;3.20;;;13.40;99.90;;;;;;5073131;28;20049;-33
2022/11/09 10:30:39;;;;;;;10.43;2.50;;;13.50;99.90;;;;;;5073293;28;20500;-32
2022/11/09 10:33:13;;;;;;;17.50;3.30;;;13.50;99.90;;;;;;5073793;28;20486;-32
2022/11/09 10:35:56;;;;;;;11.90;2.28;;;13.50;99.90;;;;;;5073838;28;20051;-33
2022/11/09 10:38:31;;;;;;;12.85;2.95;;;13.40;99.90;;;;;;5072996;28;20082;-31
2022/11/09 10:41:10;;;;;;;12.30;2.55;;;13.40;99.90;;;;;;5073432;28;20048;-33
2022/11/09 10:43:35;;;;;;;12.95;2.85;;;13.50;99.90;;;;;;5074010;28;20041;-32
2022/11/09 10:46:05;;;;;;;15.55;2.90;;;13.60;99.90;;;;;;5074742;28;20063;-32
2022/11/09 10:48:34;;;;;;;9.77;2.70;;;13.70;99.90;;;;;;5073934;28;20041;-33
2022/11/09 10:51:00;;;;;;;13.40;3.03;;;13.70;99.90;;;;;;5074170;28;20433;-31
2022/11/09 10:53:33;;;;;;;9.93;2.60;;;13.70;99.90;;;;;;5074368;28;20131;-31
2022/11/09 10:56:13;;;;;;;9.18;2.38;;;13.60;63.00;;;;;;5073855;28;20406;-32
2022/11/09 10:58:47;;;;;;;10.98;2.40;;;13.60;99.90;;;;;;5073884;28;20048;-33
2022/11/09 11:01:19;;;;;;;13.55;2.35;;;13.60;99.90;;;;;;5073866;28;20047;-31
2022/11/09 11:03:49;;;;;;;7.95;1.90;;;13.60;99.90;;;;;;5073725;28;20118;-32
2022/11/09 11:06:26;;;;;;;9.15;2.78;;;13.60;99.90;;;;;;5073801;28;20053;-32
2022/11/09 11:09:14;;;;;;;16.73;3.60;;;13.70;99.90;;;;;;5074062;28;20048;-33
2022/11/09 11:11:40;;;;;;;12.23;1.98;;;13.70;99.90;;;;;;5073604;28;20098;-32
2022/11/09 11:14:10;;;;;;;12.57;2.67;;;13.70;99.90;;;;;;5073654;28;20048;-32
2022/11/09 11:16:37;;;;;;;10.38;2.83;;;13.60;99.90;;;;;;5073669;28;20078;-32
2022/11/09 11:19:04;;;;;;;11.95;2.50;;;13.60;99.90;;;;;;5074179;28;20049;-32
2022/11/09 11:21:31;;;;;;;11.00;2.30;;;13.70;99.90;;;;;;5074148;28;20076;-33
2022/11/09 11:24:19;;;;;;;11.35;2.25;;;13.70;99.90;;;;;;5073526;28;20070;-32
2022/11/09 11:26:45;;;;;;;11.48;2.42;;;13.60;82.60;;;;;;5073591;28;20049;-32
2022/11/09 11:29:32;;;;;;;10.00;2.42;;;13.60;99.90;;;;;;5073406;28;20106;-32
2022/11/09 11:31:57;;;;;;;13.05;2.67;;;13.50;99.90;;;;;;5073464;28;20041;-32
2022/11/09 11:34:23;;;;;;;10.70;2.13;;;13.40;99.90;;;;;;5073506;28;20055;-32
2022/11/09 11:36:55;;;;;;;11.35;2.55;;;13.30;99.90;;;;;;5073940;28;20047;-32
2022/11/09 11:39:34;;;;;;;10.93;1.92;;;13.30;99.90;;;;;;5074012;28;20045;-31
2022/11/09 11:42:47;;;;;;;8.70;2.42;;;13.20;99.90;;;;;;5073441;28;20036;-32
2022/11/09 11:45:21;;;;;;;10.38;2.60;;;13.10;99.90;;;;;;5072277;28;20092;-31
2022/11/09 11:48:24;;;;;;;14.90;2.50;;;13.00;99.90;;;;;;5075744;28;20052;-32
2022/11/09 11:51:01;;;;;;;13.52;2.80;;;12.90;99.90;;;;;;5077639;28;20047;-32
2022/11/09 11:53:40;;;;;;;15.55;2.90;;;12.80;99.90;;;;;;5077193;28;20078;-32
2022/11/09 11:56:18;;;;;;;14.63;3.08;;;12.60;99.90;;;;;;5077490;28;20368;-31
2022/11/09 11:59:05;;;;;;;10.00;2.35;;;12.60;99.90;;;;;;5077781;28;20052;-32
2022/11/09 12:01:44;;;;;;;13.20;2.53;;;12.80;99.90;;;;;;5077060;28;20166;-31
2022/11/09 12:04:33;;;;;;;12.55;3.20;;;12.90;99.90;;;;;;5077315;28;20079;-31
2022/11/09 12:07:36;;;;;;;14.73;3.22;;;13.00;99.90;;;;;;5076817;28;20173;-31
2022/11/09 12:10:20;;;;;;;15.32;3.38;;;13.00;99.90;;;;;;5076875;28;20065;-31
2022/11/09 12:12:58;;;;;;;15.48;3.33;;;13.00;99.90;;;;;;5076826;28;20045;-33
2022/11/09 12:16:01;;;;;;;10.60;3.13;;;13.00;99.90;;;;;;5077695;28;20410;-31
2022/11/09 12:18:35;;;;;;;9.77;2.40;;;12.90;99.90;;;;;;5076765;28;20137;-31
2022/11/09 12:21:17;;;;;;;14.15;2.92;;;13.00;99.90;;;;;;5075688;28;20747;-31
2022/11/09 12:24:05;;;;;;;14.00;2.75;;;12.90;99.90;;;;;;5076784;28;20052;-32
2022/11/09 12:27:09;;;;;;;11.85;3.00;;;12.90;99.90;;;;;;5076320;28;20127;-30
2022/11/09 12:29:47;;;;;;;14.38;3.08;;;12.90;99.90;;;;;;5064845;28;20098;-32
2022/11/09 12:32:39;;;;;;;10.70;2.25;;;13.00;99.90;;;;;;5076484;28;20494;-31
2022/11/09 12:35:07;;;;;;;12.68;2.80;;;13.00;99.90;;;;;;5076830;28;20076;-32
2022/11/09 12:37:40;;;;;;;11.15;2.45;;;13.00;99.90;;;;;;5076464;28;20052;-31
2022/11/09 12:40:12;;;;;;;7.60;2.60;;;13.00;99.90;;;;;;5076762;28;20056;-32
2022/11/09 12:42:57;;;;;;;11.20;2.85;;;13.10;99.90;;;;;;5076400;28;20044;-32
2022/11/09 12:45:34;;;;;;;14.73;2.85;;;13.20;99.90;;;;;;5076275;28;20048;-31
2022/11/09 12:48:30;;;;;;;15.25;2.70;;;13.40;99.90;;;;;;5076256;28;20044;-32
2022/11/09 12:50:58;;;;;;;12.00;2.38;;;13.50;99.90;;;;;;5075770;28;20060;-31
2022/11/09 12:53:29;;;;;;;13.35;2.58;;;13.70;99.90;;;;;;5074960;28;20390;-32
2022/11/09 12:56:16;;;;;;;11.07;2.55;;;13.60;99.90;;;;;;5074882;28;20048;-32
2022/11/09 12:58:43;;;;;;;13.25;2.63;;;13.50;99.90;;;;;;5075877;28;20048;-31